Time;durP1;ratioP1;P1;durP2;ratioP2;P2;SDS_P1;SDS_P2;PMS_P1;PMS_P2;Temp;Humidity;BMP_temperature;BMP_pressure;BME280_temperature;BME280_humidity;BME280_pressure;Samples;Min_cycle;Max_cycle;Signal;HPM_P1;HPM_P2
2023/12/04 00:00:16;;;;;;;13.77;8.65;;;9.40;93.90;;;;;;5033344;28;20025;-43
2023/12/04 00:02:42;;;;;;;14.45;10.45;;;9.40;93.90;;;;;;5033339;28;20037;-43
2023/12/04 00:05:08;;;;;;;16.77;10.55;;;9.40;94.70;;;;;;5035117;28;20068;-43
2023/12/04 00:07:33;;;;;;;14.70;9.48;;;9.60;94.80;;;;;;5033426;28;20480;-44
2023/12/04 00:09:59;;;;;;;14.38;9.55;;;10.00;94.40;;;;;;5034693;28;20067;-44
2023/12/04 00:12:25;;;;;;;14.95;9.73;;;10.50;93.80;;;;;;5033463;28;20025;-44
2023/12/04 00:14:50;;;;;;;13.90;9.23;;;11.20;93.10;;;;;;5033171;28;20450;-44
2023/12/04 00:17:16;;;;;;;14.35;9.55;;;11.90;92.20;;;;;;5033948;28;20030;-44
2023/12/04 00:19:42;;;;;;;15.18;9.68;;;12.50;91.00;;;;;;5033039;28;20091;-43
2023/12/04 00:22:08;;;;;;;13.98;9.57;;;12.70;90.10;;;;;;5032828;28;20515;-43
2023/12/04 00:24:34;;;;;;;11.38;8.10;;;12.80;89.40;;;;;;5033642;28;20068;-43
2023/12/04 00:27:00;;;;;;;14.00;8.85;;;12.60;89.00;;;;;;5033274;28;20048;-44
2023/12/04 00:29:25;;;;;;;12.95;8.77;;;12.50;89.10;;;;;;5032806;28;20416;-44
2023/12/04 00:31:51;;;;;;;11.80;8.25;;;12.30;89.30;;;;;;5032804;28;20025;-44
2023/12/04 00:34:16;;;;;;;13.95;8.43;;;12.20;89.60;;;;;;5032834;28;20052;-44
2023/12/04 00:36:42;;;;;;;11.35;7.97;;;12.00;89.90;;;;;;5032658;28;20065;-44
2023/12/04 00:39:08;;;;;;;12.82;8.23;;;11.90;90.10;;;;;;5032454;28;20030;-44
2023/12/04 00:41:34;;;;;;;11.27;8.15;;;11.70;90.20;;;;;;5032556;28;20046;-43
2023/12/04 00:43:59;;;;;;;12.02;8.18;;;11.60;90.40;;;;;;5032713;28;20025;-43
2023/12/04 00:46:25;;;;;;;12.55;8.18;;;11.50;90.50;;;;;;5033132;28;20038;-44
2023/12/04 00:48:51;;;;;;;11.02;7.78;;;11.40;90.60;;;;;;5033712;28;20024;-44
2023/12/04 00:51:16;;;;;;;11.52;7.70;;;11.30;90.80;;;;;;5033272;28;20100;-44
2023/12/04 00:53:42;;;;;;;15.30;9.32;;;11.20;90.90;;;;;;5032427;28;20440;-44
2023/12/04 00:56:09;;;;;;;11.32;7.78;;;11.10;91.00;;;;;;5032220;28;20025;-44
2023/12/04 00:58:34;;;;;;;12.23;7.72;;;11.00;91.10;;;;;;5032458;28;20029;-44
2023/12/04 01:01:00;;;;;;;11.35;7.53;;;10.90;91.20;;;;;;5032986;28;20033;-44
2023/12/04 01:03:26;;;;;;;11.07;7.55;;;10.90;91.30;;;;;;5032196;28;20479;-44
2023/12/04 01:05:52;;;;;;;13.48;7.38;;;10.80;91.40;;;;;;5031935;28;20460;-43
2023/12/04 01:08:17;;;;;;;10.75;7.30;;;10.70;91.50;;;;;;5032068;28;20092;-44
2023/12/04 01:10:43;;;;;;;10.77;7.22;;;10.70;91.70;;;;;;5032896;28;20064;-44
2023/12/04 01:13:09;;;;;;;11.85;7.45;;;10.70;91.70;;;;;;5033231;28;20030;-44
2023/12/04 01:15:34;;;;;;;10.38;7.22;;;10.70;91.70;;;;;;5032072;28;20021;-44
2023/12/04 01:18:00;;;;;;;10.07;7.05;;;10.70;91.80;;;;;;5031894;28;20057;-44
2023/12/04 01:20:26;;;;;;;12.45;7.75;;;10.70;91.80;;;;;;5031783;28;20088;-44
2023/12/04 01:22:51;;;;;;;11.25;6.70;;;10.60;91.80;;;;;;5032549;28;20083;-44
2023/12/04 01:25:18;;;;;;;13.07;7.03;;;10.60;91.70;;;;;;5031830;28;20026;-44
2023/12/04 01:27:43;;;;;;;9.55;6.40;;;10.60;91.70;;;;;;5032037;28;20079;-44
2023/12/04 01:30:10;;;;;;;11.32;6.97;;;10.60;91.70;;;;;;5031821;28;20407;-44
2023/12/04 01:32:35;;;;;;;11.13;7.22;;;10.60;91.70;;;;;;5031778;28;20049;-44
2023/12/04 01:35:02;;;;;;;12.35;6.90;;;10.60;91.70;;;;;;5033253;28;20395;-44
2023/12/04 01:37:28;;;;;;;10.13;6.70;;;10.50;91.70;;;;;;5032086;28;20096;-44
2023/12/04 01:39:54;;;;;;;11.18;7.03;;;10.50;91.80;;;;;;5033259;28;20049;-44
2023/12/04 01:42:19;;;;;;;10.43;6.75;;;10.50;91.80;;;;;;5032440;28;20025;-44
2023/12/04 01:44:45;;;;;;;9.93;6.43;;;10.50;91.80;;;;;;5031572;28;20109;-43
2023/12/04 01:47:11;;;;;;;8.00;5.95;;;10.50;91.80;;;;;;5031558;28;20032;-44
2023/12/04 01:49:37;;;;;;;10.23;6.28;;;10.50;91.80;;;;;;5031307;28;20048;-44
2023/12/04 01:52:04;;;;;;;9.43;6.30;;;10.40;91.80;;;;;;5031462;28;20487;-43
2023/12/04 01:54:30;;;;;;;8.50;5.97;;;10.40;91.90;;;;;;5031554;28;20110;-44
2023/12/04 01:56:57;;;;;;;9.45;6.15;;;10.40;91.90;;;;;;5030891;28;20025;-44
2023/12/04 01:59:23;;;;;;;9.18;6.05;;;10.40;91.90;;;;;;5032004;28;20029;-44
2023/12/04 02:01:49;;;;;;;9.13;6.03;;;10.40;92.00;;;;;;5031412;28;20048;-45
2023/12/04 02:04:15;;;;;;;7.57;5.70;;;10.30;92.00;;;;;;5031849;28;20383;-45
2023/12/04 02:06:41;;;;;;;8.95;5.97;;;10.30;92.00;;;;;;5031260;28;20103;-45
2023/12/04 02:09:09;;;;;;;6.45;4.70;;;10.30;92.00;;;;;;5031213;28;20017;-44
2023/12/04 02:11:35;;;;;;;8.65;6.07;;;10.30;92.00;;;;;;5031214;28;20018;-44
2023/12/04 02:14:01;;;;;;;7.75;5.60;;;10.20;92.00;;;;;;5031500;28;20459;-44
2023/12/04 02:16:28;;;;;;;7.22;5.13;;;10.20;92.00;;;;;;5032809;28;20033;-45
2023/12/04 02:18:53;;;;;;;8.80;5.82;;;10.20;92.10;;;;;;5031514;28;20033;-44
2023/12/04 02:21:19;;;;;;;7.85;5.13;;;10.20;92.10;;;;;;5031378;28;20034;-46
2023/12/04 02:23:50;;;;;;;8.68;5.20;;;10.20;92.10;;;;;;5031162;28;20040;-45
2023/12/04 02:26:18;;;;;;;8.80;4.93;;;10.10;92.10;;;;;;5030993;28;20514;-45
2023/12/04 02:28:50;;;;;;;6.97;5.10;;;10.10;92.10;;;;;;5030976;28;20029;-44
2023/12/04 02:31:18;;;;;;;5.55;4.32;;;10.10;92.20;;;;;;5031043;28;20075;-45
2023/12/04 02:33:46;;;;;;;7.00;4.82;;;10.10;92.20;;;;;;5033454;28;20033;-45
2023/12/04 02:36:13;;;;;;;7.43;5.07;;;10.10;92.20;;;;;;5032507;28;20250;-44
2023/12/04 02:38:39;;;;;;;8.90;5.82;;;10.10;92.20;;;;;;5032052;28;20021;-44
2023/12/04 02:41:05;;;;;;;8.93;5.60;;;10.00;92.20;;;;;;5031010;28;20372;-45
2023/12/04 02:43:33;;;;;;;7.22;5.18;;;10.00;92.20;;;;;;5031962;28;20033;-45
2023/12/04 02:45:59;;;;;;;6.40;4.45;;;10.00;92.30;;;;;;5031553;28;20028;-43
2023/12/04 02:48:24;;;;;;;7.55;5.20;;;10.00;92.30;;;;;;5030825;28;20026;-45
2023/12/04 02:50:50;;;;;;;7.00;4.75;;;9.90;92.30;;;;;;5030845;28;20026;-45
2023/12/04 02:53:15;;;;;;;7.22;4.85;;;9.90;92.30;;;;;;5031436;28;20017;-44
2023/12/04 02:55:41;;;;;;;7.30;4.95;;;9.90;92.30;;;;;;5030730;28;20029;-45
2023/12/04 02:58:06;;;;;;;7.07;4.82;;;9.90;92.40;;;;;;5031416;28;20045;-45
2023/12/04 03:00:32;;;;;;;7.85;4.80;;;9.90;92.40;;;;;;5030920;28;20521;-45
2023/12/04 03:02:58;;;;;;;8.35;5.68;;;9.80;92.40;;;;;;5032436;28;20021;-43
2023/12/04 03:05:23;;;;;;;8.40;5.57;;;9.90;93.10;;;;;;5031423;28;20357;-44
2023/12/04 03:07:49;;;;;;;6.45;5.13;;;10.10;93.20;;;;;;5031501;28;20029;-45
2023/12/04 03:10:14;;;;;;;7.57;5.20;;;10.40;92.90;;;;;;5034319;28;20060;-45
2023/12/04 03:12:40;;;;;;;9.07;5.43;;;11.00;92.40;;;;;;5035152;28;20026;-45
2023/12/04 03:15:06;;;;;;;8.98;5.40;;;11.50;91.70;;;;;;5034299;28;20037;-45
2023/12/04 03:17:32;;;;;;;8.63;5.50;;;12.10;90.90;;;;;;5034133;28;20063;-45
2023/12/04 03:19:57;;;;;;;7.05;5.18;;;12.60;89.60;;;;;;5034145;28;20037;-45
2023/12/04 03:22:23;;;;;;;6.90;5.05;;;12.80;88.00;;;;;;5034040;28;20038;-44
2023/12/04 03:24:49;;;;;;;6.47;4.68;;;12.80;87.40;;;;;;5035439;28;20107;-44
2023/12/04 03:27:14;;;;;;;7.60;5.05;;;12.70;87.10;;;;;;5033665;28;20368;-45
2023/12/04 03:29:40;;;;;;;6.32;4.72;;;12.50;87.90;;;;;;5033893;28;20029;-44
2023/12/04 03:32:05;;;;;;;6.93;4.57;;;12.40;87.60;;;;;;5032641;28;20021;-44
2023/12/04 03:34:31;;;;;;;7.13;5.10;;;12.20;87.90;;;;;;5033909;28;20030;-44
2023/12/04 03:36:57;;;;;;;5.95;4.38;;;12.10;88.30;;;;;;5033804;28;20029;-45
2023/12/04 03:39:22;;;;;;;7.13;5.05;;;11.90;88.50;;;;;;5033633;28;20029;-44
2023/12/04 03:41:48;;;;;;;6.45;4.47;;;11.80;88.90;;;;;;5033813;28;20026;-44
2023/12/04 03:44:13;;;;;;;6.78;4.80;;;11.70;89.20;;;;;;5033650;28;20442;-45
2023/12/04 03:46:39;;;;;;;7.20;4.85;;;11.60;89.60;;;;;;5034538;28;20038;-45
2023/12/04 03:49:05;;;;;;;5.53;4.25;;;11.50;89.80;;;;;;5033783;28;20104;-45
2023/12/04 03:51:31;;;;;;;5.85;4.55;;;11.40;90.00;;;;;;5033623;28;20109;-44
2023/12/04 03:53:56;;;;;;;6.65;4.88;;;11.20;90.10;;;;;;5033510;28;20097;-45
2023/12/04 03:56:22;;;;;;;7.10;4.60;;;11.20;90.20;;;;;;5033460;28;20564;-45
2023/12/04 03:58:47;;;;;;;5.65;4.15;;;11.10;90.40;;;;;;5033263;28;20026;-45
2023/12/04 04:01:13;;;;;;;6.95;4.28;;;11.00;90.40;;;;;;5033352;28;20033;-45
2023/12/04 04:03:39;;;;;;;6.15;4.10;;;10.90;90.60;;;;;;5033421;28;20491;-45
2023/12/04 04:06:04;;;;;;;7.72;5.03;;;10.90;90.70;;;;;;5033161;28;20037;-44
2023/12/04 04:08:30;;;;;;;7.43;5.05;;;10.80;90.80;;;;;;5033231;28;20037;-45
2023/12/04 04:10:56;;;;;;;6.68;4.40;;;10.70;90.80;;;;;;5033167;28;20161;-45
2023/12/04 04:13:21;;;;;;;6.93;4.60;;;10.70;90.90;;;;;;5033114;28;20034;-45
2023/12/04 04:15:47;;;;;;;6.53;4.60;;;10.60;91.00;;;;;;5033115;28;20162;-45
2023/12/04 04:18:12;;;;;;;6.40;4.60;;;10.60;91.10;;;;;;5033110;28;20071;-45
2023/12/04 04:20:38;;;;;;;5.68;4.05;;;10.50;91.10;;;;;;5032014;28;20104;-45
2023/12/04 04:23:04;;;;;;;7.00;4.60;;;10.40;91.20;;;;;;5032840;28;20029;-45
2023/12/04 04:25:29;;;;;;;6.85;4.53;;;10.40;91.30;;;;;;5032659;28;20498;-45
2023/12/04 04:27:55;;;;;;;6.60;4.72;;;10.40;91.40;;;;;;5033004;28;20100;-44
2023/12/04 04:30:20;;;;;;;5.97;4.32;;;10.30;91.50;;;;;;5033435;28;20140;-44
2023/12/04 04:32:46;;;;;;;6.43;4.75;;;10.30;91.50;;;;;;5033356;28;20507;-45
2023/12/04 04:35:12;;;;;;;6.70;4.68;;;10.20;91.60;;;;;;5032811;28;20021;-45
2023/12/04 04:37:37;;;;;;;6.68;4.50;;;10.20;91.60;;;;;;5032668;28;20032;-45
2023/12/04 04:40:03;;;;;;;7.90;4.93;;;10.10;91.60;;;;;;5032538;28;20506;-43
2023/12/04 04:42:29;;;;;;;7.43;4.97;;;10.10;91.70;;;;;;5032681;28;20095;-44
2023/12/04 04:44:54;;;;;;;7.47;4.55;;;10.10;91.70;;;;;;5032560;28;20029;-44
2023/12/04 04:47:20;;;;;;;6.07;4.45;;;10.10;91.80;;;;;;5032816;28;20036;-44
2023/12/04 04:49:46;;;;;;;6.30;4.75;;;10.00;91.80;;;;;;5032466;28;20068;-45
2023/12/04 04:52:11;;;;;;;7.10;4.85;;;10.00;91.90;;;;;;5032451;28;20018;-45
2023/12/04 04:54:38;;;;;;;6.28;4.45;;;10.00;91.90;;;;;;5032696;28;20049;-45
2023/12/04 04:57:04;;;;;;;6.97;4.72;;;9.90;91.90;;;;;;5032762;28;20033;-45
2023/12/04 04:59:31;;;;;;;6.78;4.65;;;9.90;92.30;;;;;;5032299;28;20029;-45
2023/12/04 05:01:57;;;;;;;8.48;5.72;;;9.90;92.00;;;;;;5032330;28;20040;-43
2023/12/04 05:04:23;;;;;;;8.55;5.40;;;9.80;92.70;;;;;;5032909;28;20033;-44
2023/12/04 05:06:49;;;;;;;7.13;5.32;;;10.00;92.90;;;;;;5032368;28;20080;-45
2023/12/04 05:09:14;;;;;;;6.93;5.03;;;10.30;92.70;;;;;;5031847;28;20502;-44
2023/12/04 05:11:40;;;;;;;6.97;5.10;;;10.80;92.30;;;;;;5032252;28;20021;-45
2023/12/04 05:14:05;;;;;;;8.65;5.40;;;11.30;91.70;;;;;;5032091;28;20026;-44
2023/12/04 05:16:31;;;;;;;7.75;5.10;;;11.90;91.00;;;;;;5032913;28;20029;-44
2023/12/04 05:18:57;;;;;;;8.07;5.35;;;12.50;90.00;;;;;;5031959;28;20029;-42
2023/12/04 05:21:22;;;;;;;8.68;5.65;;;12.90;87.90;;;;;;5031815;28;20041;-45
2023/12/04 05:23:48;;;;;;;7.90;5.28;;;12.90;87.00;;;;;;5032041;28;20104;-45
2023/12/04 05:26:14;;;;;;;7.25;4.78;;;12.80;86.60;;;;;;5031707;28;20394;-44
2023/12/04 05:28:39;;;;;;;6.85;4.90;;;12.70;86.70;;;;;;5031769;28;20057;-45
2023/12/04 05:31:05;;;;;;;6.43;5.10;;;12.50;86.90;;;;;;5031514;28;20029;-45
2023/12/04 05:33:31;;;;;;;6.85;4.70;;;12.30;87.20;;;;;;5031733;28;20029;-45
2023/12/04 05:35:56;;;;;;;6.20;4.60;;;12.20;87.50;;;;;;5031556;28;20025;-45
2023/12/04 05:38:22;;;;;;;6.38;4.82;;;12.00;87.90;;;;;;5031518;28;20473;-45
2023/12/04 05:40:48;;;;;;;7.50;5.10;;;11.80;88.20;;;;;;5031585;28;20464;-45
2023/12/04 05:43:14;;;;;;;9.13;6.18;;;11.80;88.60;;;;;;5032647;28;20025;-44
2023/12/04 05:45:40;;;;;;;10.95;7.72;;;11.70;86.50;;;;;;5031478;28;20017;-44
2023/12/04 05:48:05;;;;;;;11.57;8.55;;;11.40;80.30;;;;;;5031363;28;20021;-44
2023/12/04 05:50:31;;;;;;;12.25;7.47;;;11.20;80.30;;;;;;5031446;28;20033;-44
2023/12/04 05:52:57;;;;;;;12.10;7.68;;;11.00;81.40;;;;;;5031586;28;20051;-44
2023/12/04 05:55:22;;;;;;;10.48;7.10;;;10.90;82.40;;;;;;5031799;28;20437;-42
2023/12/04 05:57:48;;;;;;;11.02;7.47;;;10.80;83.40;;;;;;5031286;28;20025;-44
2023/12/04 06:00:14;;;;;;;11.25;7.35;;;10.70;84.30;;;;;;5031276;28;20518;-44
2023/12/04 06:02:41;;;;;;;10.95;6.82;;;10.60;85.00;;;;;;5031339;28;20028;-43
2023/12/04 06:05:07;;;;;;;11.60;7.15;;;10.60;85.80;;;;;;5031227;28;20034;-42
2023/12/04 06:07:33;;;;;;;11.10;7.30;;;10.50;86.30;;;;;;5029185;28;20049;-42
2023/12/04 06:09:59;;;;;;;11.35;6.85;;;10.50;86.80;;;;;;5031214;28;20022;-44
2023/12/04 06:12:25;;;;;;;10.00;6.90;;;10.40;87.30;;;;;;5029869;28;20052;-44
2023/12/04 06:14:50;;;;;;;12.75;6.78;;;10.40;87.70;;;;;;5031200;28;20472;-44
2023/12/04 06:17:16;;;;;;;9.85;6.70;;;10.30;88.00;;;;;;5031117;28;20029;-44
2023/12/04 06:19:42;;;;;;;11.20;6.88;;;10.20;88.30;;;;;;5031217;28;20029;-44
2023/12/04 06:22:07;;;;;;;10.73;7.20;;;10.20;88.70;;;;;;5031003;28;20511;-43
2023/12/04 06:24:33;;;;;;;14.80;7.38;;;10.20;89.00;;;;;;5031422;28;20045;-44
2023/12/04 06:27:00;;;;;;;11.35;6.78;;;10.10;89.30;;;;;;5031095;28;20053;-44
2023/12/04 06:29:26;;;;;;;11.82;7.38;;;10.10;89.60;;;;;;5030968;28;20027;-44
2023/12/04 06:31:52;;;;;;;11.07;6.68;;;10.00;89.80;;;;;;5031036;28;20024;-44
2023/12/04 06:34:17;;;;;;;10.88;6.97;;;10.00;90.00;;;;;;5031378;28;20032;-44
2023/12/04 06:36:43;;;;;;;10.50;6.78;;;10.00;90.10;;;;;;5031034;28;20128;-44
2023/12/04 06:39:11;;;;;;;9.73;6.70;;;9.90;90.10;;;;;;5031315;28;20032;-44
2023/12/04 06:41:41;;;;;;;11.23;7.13;;;9.90;90.30;;;;;;5031816;28;20026;-44
2023/12/04 06:44:08;;;;;;;9.13;5.95;;;9.80;90.30;;;;;;5034006;28;20032;-42
2023/12/04 06:46:37;;;;;;;10.95;6.82;;;9.80;90.40;;;;;;5034720;28;20030;-41
2023/12/04 06:49:06;;;;;;;11.52;6.80;;;9.80;90.50;;;;;;5034516;28;20636;-44
2023/12/04 06:51:32;;;;;;;10.90;6.63;;;9.80;90.60;;;;;;5035110;28;20425;-44
2023/12/04 06:53:58;;;;;;;9.10;6.03;;;9.70;90.60;;;;;;5034996;28;20018;-44
2023/12/04 06:56:24;;;;;;;9.20;6.20;;;9.70;90.70;;;;;;5034744;28;20092;-44
2023/12/04 06:58:49;;;;;;;9.98;5.93;;;9.70;90.80;;;;;;5034546;28;20040;-44
2023/12/04 07:01:15;;;;;;;10.68;6.43;;;9.70;90.90;;;;;;5034682;28;20406;-44
2023/12/04 07:03:40;;;;;;;12.45;6.72;;;9.70;90.90;;;;;;5034424;28;20026;-44
2023/12/04 07:06:06;;;;;;;9.70;6.55;;;9.70;91.00;;;;;;5034581;28;20026;-44
2023/12/04 07:08:32;;;;;;;9.35;6.18;;;9.70;91.10;;;;;;5034359;28;20108;-42
2023/12/04 07:10:58;;;;;;;8.43;6.20;;;9.70;91.10;;;;;;5034301;28;20026;-44
2023/12/04 07:13:23;;;;;;;9.73;5.75;;;9.70;91.10;;;;;;5034438;28;20018;-41
2023/12/04 07:15:49;;;;;;;8.88;5.75;;;9.70;91.10;;;;;;5034240;28;20025;-43
2023/12/04 07:18:14;;;;;;;8.35;5.60;;;9.70;91.10;;;;;;5034024;28;20071;-44
2023/12/04 07:20:40;;;;;;;7.90;5.72;;;9.70;91.10;;;;;;5034157;28;20391;-42
2023/12/04 07:23:05;;;;;;;7.97;5.45;;;9.80;91.10;;;;;;5034072;28;20036;-45
2023/12/04 07:25:31;;;;;;;7.85;5.65;;;9.80;91.00;;;;;;5034146;28;20103;-44
2023/12/04 07:28:00;;;;;;;12.57;8.65;;;9.90;91.00;;;;;;5033956;28;20522;-42
2023/12/04 07:30:26;;;;;;;16.52;10.50;;;9.90;90.00;;;;;;5033994;28;20383;-45
2023/12/04 07:32:52;;;;;;;13.60;9.65;;;9.80;86.50;;;;;;5034367;28;20026;-44
2023/12/04 07:35:21;;;;;;;15.32;9.68;;;9.80;85.90;;;;;;5033962;28;20024;-42
2023/12/04 07:37:46;;;;;;;14.80;9.70;;;9.70;86.10;;;;;;5034016;28;20528;-45
2023/12/04 07:40:12;;;;;;;14.00;9.40;;;9.70;86.40;;;;;;5032466;28;20025;-44
2023/12/04 07:42:38;;;;;;;14.23;9.13;;;9.70;86.80;;;;;;5033856;28;20074;-42
2023/12/04 07:45:04;;;;;;;14.77;9.73;;;9.70;87.10;;;;;;5033749;28;20493;-44
2023/12/04 07:47:30;;;;;;;17.85;9.00;;;9.70;87.50;;;;;;5033362;28;20040;-41
2023/12/04 07:49:55;;;;;;;16.20;8.48;;;9.70;87.80;;;;;;5033727;28;20021;-45
2023/12/04 07:52:21;;;;;;;12.23;8.68;;;9.70;88.10;;;;;;5034222;28;20442;-44
2023/12/04 07:54:47;;;;;;;14.43;8.77;;;9.70;88.30;;;;;;5020073;28;20039;-45
2023/12/04 07:57:12;;;;;;;12.82;8.45;;;9.70;88.70;;;;;;5037434;28;20037;-45
2023/12/04 07:59:38;;;;;;;13.80;8.35;;;9.80;89.00;;;;;;5033513;28;20037;-44
2023/12/04 08:02:04;;;;;;;10.65;7.18;;;9.80;89.20;;;;;;5033355;28;20026;-45
2023/12/04 08:04:29;;;;;;;14.63;8.15;;;9.80;89.40;;;;;;5032053;28;20088;-44
2023/12/04 08:06:55;;;;;;;13.35;8.18;;;9.80;89.60;;;;;;5033214;28;20025;-44
2023/12/04 08:09:20;;;;;;;11.70;7.47;;;9.90;89.80;;;;;;5034048;28;20440;-43
2023/12/04 08:11:46;;;;;;;11.15;7.43;;;9.90;90.00;;;;;;5033257;28;20459;-45
2023/12/04 08:14:12;;;;;;;10.73;7.18;;;9.90;90.00;;;;;;5033188;28;20072;-44
2023/12/04 08:16:37;;;;;;;12.20;7.72;;;10.00;90.00;;;;;;5033020;28;20030;-44
2023/12/04 08:19:03;;;;;;;11.52;7.43;;;10.00;90.00;;;;;;5033520;28;20107;-43
2023/12/04 08:21:29;;;;;;;10.80;7.13;;;10.10;90.10;;;;;;5032945;28;20037;-43
2023/12/04 08:23:54;;;;;;;12.07;7.75;;;10.10;90.10;;;;;;5033081;28;20068;-44
2023/12/04 08:26:24;;;;;;;10.93;7.20;;;10.20;90.20;;;;;;5032906;28;20399;-44
2023/12/04 08:28:50;;;;;;;10.20;6.60;;;10.20;90.20;;;;;;5032832;28;20026;-43
2023/12/04 08:31:16;;;;;;;9.43;6.38;;;10.20;90.20;;;;;;5033118;28;20463;-44
2023/12/04 08:33:42;;;;;;;11.18;6.63;;;10.20;90.20;;;;;;5031585;28;20036;-44
2023/12/04 08:36:08;;;;;;;9.55;6.65;;;10.30;90.20;;;;;;5032972;28;20021;-45
2023/12/04 08:38:34;;;;;;;10.27;6.85;;;10.30;90.20;;;;;;5033472;28;20084;-45
2023/12/04 08:41:00;;;;;;;9.40;6.65;;;10.30;90.20;;;;;;5032942;28;20487;-44
2023/12/04 08:43:25;;;;;;;8.43;6.28;;;10.40;90.30;;;;;;5032681;28;20033;-45
2023/12/04 08:45:51;;;;;;;9.75;6.07;;;10.40;90.30;;;;;;5031027;28;20571;-40
2023/12/04 08:48:16;;;;;;;8.77;5.88;;;10.40;90.30;;;;;;5032691;28;20483;-44
2023/12/04 08:50:42;;;;;;;12.18;6.80;;;10.50;90.30;;;;;;5032949;28;20128;-43
2023/12/04 08:53:08;;;;;;;10.38;6.10;;;10.50;90.30;;;;;;5032468;28;20365;-45
2023/12/04 08:55:33;;;;;;;8.35;5.47;;;10.50;90.40;;;;;;5032363;28;20495;-44
2023/12/04 08:58:00;;;;;;;9.60;5.97;;;10.60;90.40;;;;;;5032334;28;20036;-43
2023/12/04 09:00:25;;;;;;;8.85;5.97;;;10.60;90.40;;;;;;5032406;28;20111;-44
2023/12/04 09:02:51;;;;;;;8.32;5.82;;;10.70;90.40;;;;;;5032562;28;20487;-40
2023/12/04 09:05:16;;;;;;;9.63;6.03;;;10.70;90.40;;;;;;5031277;28;20120;-43
2023/12/04 09:07:42;;;;;;;9.00;5.90;;;10.80;90.40;;;;;;5032005;28;20025;-40
2023/12/04 09:10:08;;;;;;;9.07;5.88;;;10.90;89.70;;;;;;5032202;28;20025;-42
2023/12/04 09:12:36;;;;;;;8.20;5.75;;;10.90;87.60;;;;;;5032135;28;20025;-44
2023/12/04 09:15:02;;;;;;;7.53;5.60;;;10.80;87.10;;;;;;5031969;28;20025;-44
2023/12/04 09:17:28;;;;;;;6.82;5.28;;;10.90;87.20;;;;;;5032034;28;20124;-44
2023/12/04 09:19:54;;;;;;;7.10;5.25;;;10.90;87.30;;;;;;5031893;28;20550;-44
2023/12/04 09:22:19;;;;;;;7.13;5.03;;;10.90;87.40;;;;;;5031844;28;20034;-44
2023/12/04 09:24:45;;;;;;;6.55;5.20;;;11.00;87.50;;;;;;5031899;28;20025;-44
2023/12/04 09:27:11;;;;;;;7.15;4.88;;;11.00;87.60;;;;;;5031658;28;20021;-42
2023/12/04 09:29:37;;;;;;;6.95;4.75;;;11.00;87.60;;;;;;5031881;28;20041;-44
2023/12/04 09:32:03;;;;;;;10.90;5.32;;;11.10;87.70;;;;;;5031743;28;20083;-44
2023/12/04 09:34:29;;;;;;;5.85;4.68;;;11.10;87.70;;;;;;5031726;28;20029;-44
2023/12/04 09:36:54;;;;;;;6.65;4.97;;;11.10;87.70;;;;;;5031735;28;20061;-44
2023/12/04 09:39:20;;;;;;;6.75;4.70;;;11.20;87.80;;;;;;5031418;28;20053;-44
2023/12/04 09:41:46;;;;;;;5.68;4.45;;;11.20;87.80;;;;;;5031667;28;20391;-41
2023/12/04 09:44:12;;;;;;;6.32;4.82;;;11.20;87.80;;;;;;5031528;28;20040;-44
2023/12/04 09:46:38;;;;;;;5.90;4.28;;;11.30;87.80;;;;;;5031644;28;20021;-44
2023/12/04 09:49:05;;;;;;;5.55;4.22;;;11.30;87.80;;;;;;5031574;28;20037;-41
2023/12/04 09:51:31;;;;;;;5.40;4.05;;;11.40;88.60;;;;;;5031546;28;20037;-39
2023/12/04 09:54:03;;;;;;;6.53;4.53;;;11.40;87.80;;;;;;5031706;28;20124;-42
2023/12/04 09:56:29;;;;;;;5.40;4.15;;;11.40;87.80;;;;;;5031442;28;20550;-44
2023/12/04 09:58:59;;;;;;;4.35;3.75;;;11.40;87.80;;;;;;5031187;28;20112;-44
2023/12/04 10:01:27;;;;;;;6.93;4.40;;;11.50;87.90;;;;;;5031319;28;20100;-44
2023/12/04 10:03:53;;;;;;;5.78;3.97;;;11.50;87.90;;;;;;5031629;28;20468;-44
2023/12/04 10:06:19;;;;;;;5.65;4.15;;;11.50;87.90;;;;;;5031131;28;20104;-44
2023/12/04 10:08:45;;;;;;;5.13;3.80;;;11.50;87.90;;;;;;5031216;28;20021;-39
2023/12/04 10:11:13;;;;;;;5.60;4.03;;;11.50;87.80;;;;;;5031499;28;20101;-44
2023/12/04 10:13:41;;;;;;;6.72;4.00;;;11.60;87.80;;;;;;5031229;28;20029;-44
2023/12/04 10:16:07;;;;;;;5.03;3.72;;;11.60;87.80;;;;;;5031173;28;20021;-44
2023/12/04 10:18:33;;;;;;;5.30;3.83;;;11.60;87.80;;;;;;5033663;28;20025;-44
2023/12/04 10:20:59;;;;;;;5.40;3.92;;;11.60;87.80;;;;;;5035249;28;20020;-44
2023/12/04 10:23:37;;;;;;;5.28;3.97;;;11.70;87.80;;;;;;5035723;28;20056;-44
2023/12/04 10:26:04;;;;;;;5.57;3.78;;;11.70;87.90;;;;;;5035055;28;20025;-45
2023/12/04 10:28:29;;;;;;;5.82;3.95;;;11.60;87.80;;;;;;5036298;28;20064;-40
2023/12/04 10:30:55;;;;;;;5.88;3.25;;;11.70;87.80;;;;;;5035270;28;20022;-44
2023/12/04 10:33:25;;;;;;;5.40;3.72;;;11.70;87.90;;;;;;5035336;28;20022;-42
2023/12/04 10:35:51;;;;;;;5.07;3.78;;;11.70;87.80;;;;;;5035038;28;20025;-44
2023/12/04 10:38:18;;;;;;;6.68;4.90;;;11.70;87.80;;;;;;5034775;28;20033;-45
2023/12/04 10:40:44;;;;;;;6.18;4.93;;;11.80;87.30;;;;;;5035012;28;20044;-44
2023/12/04 10:43:15;;;;;;;7.68;5.03;;;11.80;85.60;;;;;;5034879;28;20025;-46
2023/12/04 10:45:42;;;;;;;6.25;4.68;;;11.70;85.30;;;;;;5034924;28;20033;-43
2023/12/04 10:48:08;;;;;;;6.78;4.63;;;11.60;85.30;;;;;;5035559;28;20029;-45
2023/12/04 10:50:35;;;;;;;6.90;4.60;;;11.60;85.70;;;;;;5033607;28;20519;-46
2023/12/04 10:53:04;;;;;;;6.93;4.82;;;11.60;86.00;;;;;;5035760;28;20029;-46
2023/12/04 10:55:31;;;;;;;6.30;4.22;;;11.60;86.10;;;;;;5035089;28;20383;-44
2023/12/04 10:57:57;;;;;;;7.00;4.43;;;11.70;86.40;;;;;;5034534;28;20487;-46
2023/12/04 11:00:24;;;;;;;7.82;4.93;;;11.70;86.60;;;;;;5034524;28;20061;-45
2023/12/04 11:02:53;;;;;;;5.57;4.20;;;11.70;86.80;;;;;;5034968;28;20049;-46
2023/12/04 11:05:21;;;;;;;5.90;4.50;;;11.70;86.90;;;;;;5034344;28;20109;-46
2023/12/04 11:07:59;;;;;;;5.90;4.05;;;11.70;87.10;;;;;;5034422;28;20032;-45
2023/12/04 11:10:27;;;;;;;4.90;4.03;;;11.70;87.30;;;;;;5034899;28;20025;-46
2023/12/04 11:13:17;;;;;;;5.90;4.07;;;11.80;87.50;;;;;;5034370;28;20021;-45
2023/12/04 11:15:45;;;;;;;5.50;4.10;;;11.80;87.60;;;;;;5034191;28;20380;-46
2023/12/04 11:18:15;;;;;;;6.30;3.88;;;11.70;87.60;;;;;;5034309;28;20029;-46
2023/12/04 11:20:59;;;;;;;6.13;4.05;;;11.80;87.80;;;;;;5034257;28;20040;-44
2023/12/04 11:23:25;;;;;;;4.90;3.45;;;11.80;87.80;;;;;;5034509;28;20037;-46
2023/12/04 11:25:51;;;;;;;6.22;3.78;;;11.80;87.90;;;;;;5034098;28;20025;-45
2023/12/04 11:28:18;;;;;;;5.40;3.40;;;11.80;88.00;;;;;;5033378;28;20026;-44
2023/12/04 11:30:45;;;;;;;4.82;3.50;;;11.80;88.10;;;;;;5035082;28;20033;-45
2023/12/04 11:33:11;;;;;;;5.07;3.65;;;11.90;88.20;;;;;;5034253;28;20032;-46
2023/12/04 11:35:38;;;;;;;5.40;3.53;;;11.80;88.10;;;;;;5033886;28;20360;-44
2023/12/04 11:38:07;;;;;;;4.68;3.40;;;11.80;88.20;;;;;;5033851;28;20034;-44
2023/12/04 11:40:32;;;;;;;5.28;3.65;;;11.90;88.40;;;;;;5033819;28;20100;-44
2023/12/04 11:42:58;;;;;;;4.68;3.63;;;11.90;88.40;;;;;;5033624;28;20156;-46
2023/12/04 11:45:24;;;;;;;4.63;3.45;;;11.90;89.10;;;;;;5033532;28;20064;-46
2023/12/04 11:47:57;;;;;;;4.57;3.08;;;11.90;88.50;;;;;;5034161;28;20100;-46
2023/12/04 11:50:25;;;;;;;4.93;3.03;;;11.90;88.50;;;;;;5033787;28;20099;-46
2023/12/04 11:52:50;;;;;;;4.47;3.30;;;11.90;88.50;;;;;;5033604;28;20026;-46
2023/12/04 11:55:19;;;;;;;5.03;3.10;;;11.90;88.60;;;;;;5033515;28;20076;-45
2023/12/04 11:57:46;;;;;;;4.65;3.20;;;11.90;88.60;;;;;;5033948;28;20124;-45
2023/12/04 12:00:14;;;;;;;5.25;3.65;;;11.90;88.70;;;;;;5033515;28;20021;-44
2023/12/04 12:02:41;;;;;;;4.18;3.05;;;11.90;88.70;;;;;;5033775;28;20024;-46
2023/12/04 12:05:07;;;;;;;3.88;2.88;;;12.00;88.80;;;;;;5033357;28;20065;-45
2023/12/04 12:07:34;;;;;;;5.50;3.80;;;11.90;88.80;;;;;;5033558;28;20030;-46
2023/12/04 12:09:59;;;;;;;5.38;3.47;;;12.00;88.80;;;;;;5033149;28;20064;-46
2023/12/04 12:12:27;;;;;;;4.55;3.15;;;11.90;88.80;;;;;;5033203;28;20018;-46
2023/12/04 12:14:53;;;;;;;5.10;3.17;;;12.00;88.90;;;;;;5033252;28;20468;-45
2023/12/04 12:17:19;;;;;;;4.85;3.33;;;12.00;89.00;;;;;;5033416;28;20029;-44
2023/12/04 12:19:45;;;;;;;4.93;3.33;;;12.00;89.00;;;;;;5033074;28;20109;-45
2023/12/04 12:22:11;;;;;;;3.78;3.03;;;12.00;89.00;;;;;;5033062;28;20132;-46
2023/12/04 12:24:37;;;;;;;4.43;3.08;;;12.00;89.00;;;;;;5033511;28;20029;-45
2023/12/04 12:27:04;;;;;;;4.82;3.35;;;12.00;89.00;;;;;;5032972;28;20029;-45
2023/12/04 12:29:29;;;;;;;4.00;3.00;;;12.00;89.00;;;;;;5032789;28;20395;-45
2023/12/04 12:31:55;;;;;;;5.28;3.50;;;12.00;89.10;;;;;;5033710;28;20026;-45
2023/12/04 12:34:21;;;;;;;4.68;3.20;;;12.00;89.10;;;;;;5033608;28;20471;-45
2023/12/04 12:36:47;;;;;;;4.60;3.13;;;12.00;89.10;;;;;;5033115;28;20072;-46
2023/12/04 12:39:13;;;;;;;4.10;3.13;;;12.00;89.20;;;;;;5032698;28;20657;-44